Time;durP1;ratioP1;P1;durP2;ratioP2;P2;SDS_P1;SDS_P2;PMS_P1;PMS_P2;Temp;Humidity;BMP_temperature;BMP_pressure;BME280_temperature;BME280_humidity;BME280_pressure;Samples;Min_cycle;Max_cycle;Signal;HPM_P1;HPM_P2
2022/03/19 00:00:33;;;;;;;13.38;8.10;;;;;;;;;;5029144;28;20045;-59
2022/03/19 00:02:59;;;;;;;13.80;8.00;;;;;;;;;;5024868;28;20028;-58
2022/03/19 00:05:26;;;;;;;14.80;8.05;;;;;;;;;;5024639;28;20396;-58
2022/03/19 00:07:52;;;;;;;17.05;8.68;;;;;;;;;;5029311;28;20104;-57
2022/03/19 00:10:19;;;;;;;14.93;8.30;;;;;;;;;;5026042;28;20018;-58
2022/03/19 00:12:46;;;;;;;13.63;8.40;;;;;;;;;;5028774;28;20026;-58
2022/03/19 00:15:12;;;;;;;16.70;8.52;;;;;;;;;;5027532;28;20046;-58
2022/03/19 00:17:38;;;;;;;15.15;8.90;;;;;;;;;;5027671;28;20383;-58
2022/03/19 00:20:04;;;;;;;15.40;9.05;;;;;;;;;;5023621;28;20112;-58
2022/03/19 00:22:31;;;;;;;14.57;9.10;;;;;;;;;;5027009;28;20025;-58
2022/03/19 00:24:58;;;;;;;14.35;8.52;;;;;;;;;;5025963;28;20044;-58
2022/03/19 00:27:25;;;;;;;15.80;8.68;;;;;;;;;;5024787;28;20041;-60
2022/03/19 00:29:51;;;;;;;14.07;8.48;;;;;;;;;;5029277;28;20108;-58
2022/03/19 00:32:17;;;;;;;17.33;8.90;;;;;;;;;;5025427;28;20397;-58
2022/03/19 00:34:43;;;;;;;13.60;8.30;;;;;;;;;;5026479;28;20025;-59
2022/03/19 00:37:09;;;;;;;16.67;8.57;;;;;;;;;;5026698;28;20440;-58
2022/03/19 00:39:35;;;;;;;16.20;8.55;;;;;;;;;;5026770;28;20095;-59
2022/03/19 00:42:01;;;;;;;14.25;9.30;;;;;;;;;;5025720;28;20112;-58
2022/03/19 00:44:27;;;;;;;18.05;9.55;;;;;;;;;;5030914;28;20041;-59
2022/03/19 00:46:53;;;;;;;16.67;8.77;;;;;;;;;;5029778;28;20032;-58
2022/03/19 00:49:19;;;;;;;15.98;9.20;;;;;;;;;;5025940;28;20400;-58
2022/03/19 00:51:45;;;;;;;15.77;9.10;;;;;;;;;;5027465;28;20029;-58
2022/03/19 00:54:12;;;;;;;17.33;9.07;;;;;;;;;;5029423;28;20029;-59
2022/03/19 00:56:39;;;;;;;15.98;9.43;;;;;;;;;;5026879;28;20068;-58
2022/03/19 00:59:05;;;;;;;14.15;8.85;;;;;;;;;;5025217;28;20071;-58
2022/03/19 01:01:31;;;;;;;14.93;9.88;;;;;;;;;;5027972;28;20026;-58
2022/03/19 01:03:57;;;;;;;16.60;9.07;;;;;;;;;;5026165;28;20480;-58
2022/03/19 01:06:23;;;;;;;14.63;9.32;;;;;;;;;;5027217;28;20041;-58
2022/03/19 01:08:49;;;;;;;14.23;9.18;;;;;;;;;;5031299;28;20017;-58
2022/03/19 01:11:15;;;;;;;17.02;9.82;;;;;;;;;;5030302;28;20122;-58
2022/03/19 01:13:41;;;;;;;16.30;8.90;;;;;;;;;;5026707;28;20472;-57
2022/03/19 01:16:07;;;;;;;16.85;9.48;;;;;;;;;;5026919;28;20378;-58
2022/03/19 01:18:33;;;;;;;17.85;9.52;;;;;;;;;;5023574;28;20021;-57
2022/03/19 01:20:59;;;;;;;15.05;9.60;;;;;;;;;;5024150;28;20017;-58
2022/03/19 01:23:25;;;;;;;15.50;9.32;;;;;;;;;;5027406;28;20534;-58
2022/03/19 01:25:51;;;;;;;15.70;9.55;;;;;;;;;;5027128;28;20447;-58
2022/03/19 01:28:17;;;;;;;20.70;9.95;;;;;;;;;;5031820;28;20150;-57
2022/03/19 01:30:43;;;;;;;15.73;9.95;;;;;;;;;;5024145;28;20026;-58
2022/03/19 01:33:09;;;;;;;19.58;9.77;;;;;;;;;;5028123;28;20029;-58
2022/03/19 01:35:35;;;;;;;17.65;10.30;;;;;;;;;;5028031;28;20028;-58
2022/03/19 01:38:04;;;;;;;17.98;9.95;;;;;;;;;;5029772;28;20407;-58
2022/03/19 01:40:30;;;;;;;15.27;9.80;;;;;;;;;;5030214;28;20025;-57
2022/03/19 01:42:57;;;;;;;13.10;8.55;;;;;;;;;;5031460;28;20029;-58
2022/03/19 01:45:24;;;;;;;16.08;9.30;;;;;;;;;;5030683;28;20064;-59
2022/03/19 01:47:51;;;;;;;18.40;9.82;;;;;;;;;;5023122;28;20030;-58
2022/03/19 01:50:18;;;;;;;17.30;9.30;;;;;;;;;;5023791;28;20045;-58
2022/03/19 01:52:44;;;;;;;15.38;10.45;;;;;;;;;;5024984;28;20060;-58
2022/03/19 01:55:11;;;;;;;16.90;10.70;;;;;;;;;;5029800;28;20025;-57
2022/03/19 01:57:38;;;;;;;20.98;11.23;;;;;;;;;;5033562;28;20029;-58
2022/03/19 02:00:05;;;;;;;22.63;12.77;;;;;;;;;;5029316;28;20025;-58
2022/03/19 02:02:32;;;;;;;20.73;11.02;;;;;;;;;;5031281;28;20045;-57
2022/03/19 02:04:59;;;;;;;14.27;10.18;;;;;;;;;;5027612;28;20104;-58
2022/03/19 02:07:25;;;;;;;18.48;10.63;;;;;;;;;;5040157;28;20392;-58
2022/03/19 02:09:51;;;;;;;16.08;10.35;;;;;;;;;;5027243;28;20427;-56
2022/03/19 02:12:17;;;;;;;17.83;10.55;;;;;;;;;;5033362;28;20029;-57
2022/03/19 02:14:44;;;;;;;18.60;10.77;;;;;;;;;;5031823;28;20386;-57
2022/03/19 02:17:10;;;;;;;19.13;10.68;;;;;;;;;;5035708;28;20055;-58
2022/03/19 02:19:48;;;;;;;20.33;10.98;;;;;;;;;;5036713;28;20040;-57
2022/03/19 02:22:14;;;;;;;17.30;10.23;;;;;;;;;;5033944;28;20020;-57
2022/03/19 02:27:24;;;;;;;16.05;10.95;;;;;;;;;;5025726;28;20083;-58
2022/03/19 02:29:51;;;;;;;20.08;11.43;;;;;;;;;;5028587;28;20439;-58
2022/03/19 02:32:17;;;;;;;17.75;11.65;;;;;;;;;;5032085;28;20039;-58
2022/03/19 02:34:43;;;;;;;21.95;12.07;;;;;;;;;;5029674;28;20026;-57
2022/03/19 02:37:09;;;;;;;25.05;12.50;;;;;;;;;;5028946;28;21556;-57
2022/03/19 02:39:35;;;;;;;18.55;11.65;;;;;;;;;;5030593;28;20104;-56
2022/03/19 02:42:03;;;;;;;21.50;13.02;;;;;;;;;;5029082;28;20017;-58
2022/03/19 02:44:29;;;;;;;22.10;12.43;;;;;;;;;;5029916;28;20112;-58
2022/03/19 02:46:56;;;;;;;22.02;12.05;;;;;;;;;;5031457;28;20049;-57
2022/03/19 02:49:23;;;;;;;18.55;11.95;;;;;;;;;;5028184;28;20068;-58
2022/03/19 02:51:50;;;;;;;18.85;11.85;;;;;;;;;;5030439;28;20018;-58
2022/03/19 02:54:17;;;;;;;22.10;12.05;;;;;;;;;;5026011;28;20083;-58
2022/03/19 02:56:44;;;;;;;18.00;11.75;;;;;;;;;;5035256;28;20384;-58
2022/03/19 02:59:17;;;;;;;18.10;11.43;;;;;;;;;;5033512;28;20176;-58
2022/03/19 03:01:43;;;;;;;17.10;11.15;;;;;;;;;;5038421;28;20031;-58
2022/03/19 03:04:09;;;;;;;18.85;11.55;;;;;;;;;;5034829;28;20033;-57
2022/03/19 03:06:38;;;;;;;18.52;11.18;;;;;;;;;;5027780;28;20104;-58
2022/03/19 03:09:05;;;;;;;21.45;11.27;;;;;;;;;;5036546;28;20021;-57
2022/03/19 03:11:31;;;;;;;18.33;11.15;;;;;;;;;;5029804;28;20030;-58
2022/03/19 03:13:58;;;;;;;20.42;11.88;;;;;;;;;;5027773;28;20480;-57
2022/03/19 03:16:25;;;;;;;26.05;11.52;;;;;;;;;;5030494;28;20037;-57
2022/03/19 03:18:51;;;;;;;20.00;11.77;;;;;;;;;;5028967;28;20033;-58
2022/03/19 03:21:17;;;;;;;25.95;12.25;;;;;;;;;;5024755;28;20080;-58
2022/03/19 03:23:43;;;;;;;22.10;11.55;;;;;;;;;;5025372;28;20392;-58
2022/03/19 03:26:08;;;;;;;23.88;11.98;;;;;;;;;;5029172;28;20029;-58
2022/03/19 03:28:34;;;;;;;19.58;11.57;;;;;;;;;;5029002;28;20037;-56
2022/03/19 03:31:00;;;;;;;18.30;11.75;;;;;;;;;;5026544;28;20113;-58
2022/03/19 03:33:26;;;;;;;20.98;12.40;;;;;;;;;;5027733;28;20091;-57
2022/03/19 03:35:52;;;;;;;17.15;11.93;;;;;;;;;;5025382;28;20075;-58
2022/03/19 03:38:19;;;;;;;20.00;11.48;;;;;;;;;;5032154;28;20307;-57
2022/03/19 03:40:45;;;;;;;14.68;10.73;;;;;;;;;;5028792;28;20444;-57
2022/03/19 03:43:11;;;;;;;20.50;12.40;;;;;;;;;;5028953;28;20018;-56
2022/03/19 03:45:37;;;;;;;18.45;11.75;;;;;;;;;;5026351;28;20397;-57
2022/03/19 03:48:03;;;;;;;21.98;12.63;;;;;;;;;;5024926;28;20029;-58
2022/03/19 03:50:29;;;;;;;21.17;11.98;;;;;;;;;;5031958;28;20029;-58
2022/03/19 03:52:56;;;;;;;18.15;12.25;;;;;;;;;;5036989;28;20021;-57
2022/03/19 03:55:22;;;;;;;22.27;13.15;;;;;;;;;;5026594;28;20045;-58
2022/03/19 03:57:48;;;;;;;19.55;11.82;;;;;;;;;;5026901;28;20793;-58
2022/03/19 04:00:14;;;;;;;18.30;11.93;;;;;;;;;;5028341;28;20033;-58
2022/03/19 04:02:40;;;;;;;18.92;12.32;;;;;;;;;;5027964;28;20487;-57
2022/03/19 04:05:07;;;;;;;20.58;11.57;;;;;;;;;;5029525;28;20031;-58
2022/03/19 04:07:33;;;;;;;17.55;11.98;;;;;;;;;;5024275;28;20029;-58
2022/03/19 04:09:59;;;;;;;23.73;13.15;;;;;;;;;;5029933;28;20025;-58
2022/03/19 04:12:25;;;;;;;21.08;13.13;;;;;;;;;;5027858;28;20468;-58
2022/03/19 04:14:52;;;;;;;17.88;12.68;;;;;;;;;;5022681;28;20033;-58
2022/03/19 04:17:18;;;;;;;25.20;12.48;;;;;;;;;;5025337;28;20067;-57
2022/03/19 04:19:45;;;;;;;21.58;13.75;;;;;;;;;;5030467;28;20032;-58
2022/03/19 04:22:11;;;;;;;26.85;16.02;;;;;;;;;;5028725;28;20026;-58
2022/03/19 04:24:37;;;;;;;22.42;14.30;;;;;;;;;;5033052;28;20500;-57
2022/03/19 04:27:03;;;;;;;23.52;15.75;;;;;;;;;;5022120;28;20469;-56
2022/03/19 04:29:30;;;;;;;26.05;14.18;;;;;;;;;;5027608;28;20034;-58
2022/03/19 04:31:56;;;;;;;20.52;14.02;;;;;;;;;;5028455;28;20101;-58
2022/03/19 04:34:22;;;;;;;19.33;12.23;;;;;;;;;;5023047;28;20033;-58
2022/03/19 04:36:48;;;;;;;19.05;12.43;;;;;;;;;;5033466;28;20026;-57
2022/03/19 04:39:14;;;;;;;19.88;13.25;;;;;;;;;;5027610;28;20121;-57
2022/03/19 04:41:41;;;;;;;21.42;12.85;;;;;;;;;;5025985;28;20093;-57
2022/03/19 04:44:08;;;;;;;20.38;12.85;;;;;;;;;;5023897;28;20033;-58
2022/03/19 04:46:34;;;;;;;23.65;13.20;;;;;;;;;;5029855;28;20022;-58
2022/03/19 04:49:00;;;;;;;18.58;12.05;;;;;;;;;;5024964;28;20500;-57
2022/03/19 04:51:44;;;;;;;24.10;13.00;;;;;;;;;;5030991;28;20476;-57
2022/03/19 04:54:10;;;;;;;23.13;13.23;;;;;;;;;;5023502;28;20389;-58
2022/03/19 04:56:36;;;;;;;23.20;12.50;;;;;;;;;;5023197;28;20021;-58
2022/03/19 04:59:03;;;;;;;22.00;12.07;;;;;;;;;;5026774;28;20029;-58
2022/03/19 05:01:30;;;;;;;20.02;12.02;;;;;;;;;;5024249;28;20084;-56
2022/03/19 05:03:56;;;;;;;20.00;11.57;;;;;;;;;;5028277;28;20033;-58
2022/03/19 05:06:22;;;;;;;22.25;11.82;;;;;;;;;;5023585;28;20041;-58
2022/03/19 05:11:12;;;;;;;23.02;11.70;;;;;;;;;;5025352;28;20633;-56
2022/03/19 05:11:37;;;;;;;19.95;11.90;;;;;;;;;;5028767;28;20446;-58
2022/03/19 05:14:04;;;;;;;18.80;11.82;;;;;;;;;;5028573;28;20036;-58
2022/03/19 05:16:30;;;;;;;18.73;12.77;;;;;;;;;;5025866;28;20677;-57
2022/03/19 05:18:57;;;;;;;17.13;11.70;;;;;;;;;;5011096;28;20074;-58
2022/03/19 05:21:22;;;;;;;19.08;12.68;;;;;;;;;;5025021;28;20087;-58
2022/03/19 05:23:48;;;;;;;19.55;12.95;;;;;;;;;;5026652;28;20033;-58
2022/03/19 05:26:14;;;;;;;21.77;11.93;;;;;;;;;;5023580;28;20013;-56
2022/03/19 05:28:40;;;;;;;21.35;12.88;;;;;;;;;;5027478;28;20029;-58
2022/03/19 05:31:08;;;;;;;20.20;12.93;;;;;;;;;;5032942;28;20022;-58
2022/03/19 05:36:18;;;;;;;21.25;12.18;;;;;;;;;;5025244;28;20040;-58
2022/03/19 05:38:44;;;;;;;22.98;12.30;;;;;;;;;;5031798;28;20025;-58
2022/03/19 05:41:10;;;;;;;20.17;12.20;;;;;;;;;;5026964;28;20717;-58
2022/03/19 05:43:36;;;;;;;19.67;12.10;;;;;;;;;;5024211;28;20107;-59
2022/03/19 05:46:03;;;;;;;18.30;12.10;;;;;;;;;;5032666;28;20073;-58
2022/03/19 05:48:29;;;;;;;21.55;12.80;;;;;;;;;;5027439;28;20033;-58
2022/03/19 05:50:55;;;;;;;20.88;12.10;;;;;;;;;;5030688;28;20021;-58
2022/03/19 05:53:21;;;;;;;18.75;12.40;;;;;;;;;;5032414;28;20116;-57
2022/03/19 05:55:47;;;;;;;24.85;12.75;;;;;;;;;;5026437;28;20112;-58
2022/03/19 05:58:13;;;;;;;22.70;12.68;;;;;;;;;;5030496;28;20041;-58
2022/03/19 06:00:39;;;;;;;21.15;12.75;;;;;;;;;;5032381;28;20539;-58
2022/03/19 06:03:05;;;;;;;23.38;13.75;;;;;;;;;;5032134;28;20068;-58
2022/03/19 06:05:31;;;;;;;20.70;13.02;;;;;;;;;;5031718;28;20037;-58
2022/03/19 06:07:59;;;;;;;19.52;12.63;;;;;;;;;;5032487;28;20127;-57
2022/03/19 06:10:25;;;;;;;21.67;12.38;;;;;;;;;;5027537;28;20029;-58
2022/03/19 06:12:51;;;;;;;21.70;12.38;;;;;;;;;;5029749;28;20036;-58
2022/03/19 06:15:17;;;;;;;24.38;13.85;;;;;;;;;;5034823;28;20097;-58
2022/03/19 06:17:43;;;;;;;20.95;12.48;;;;;;;;;;5026538;28;20116;-58
2022/03/19 06:20:09;;;;;;;23.58;13.15;;;;;;;;;;5033965;28;20107;-58
2022/03/19 06:22:39;;;;;;;21.30;12.93;;;;;;;;;;5025632;28;20105;-57
2022/03/19 06:25:06;;;;;;;21.90;13.02;;;;;;;;;;5030290;28;20027;-58
2022/03/19 06:27:32;;;;;;;23.38;13.40;;;;;;;;;;5031304;28;20026;-58
2022/03/19 06:29:57;;;;;;;23.75;12.48;;;;;;;;;;5028828;28;20374;-58
2022/03/19 06:32:23;;;;;;;19.48;12.70;;;;;;;;;;5034579;28;20091;-58
2022/03/19 06:34:49;;;;;;;21.55;13.25;;;;;;;;;;5030777;28;20029;-58
2022/03/19 06:37:22;;;;;;;22.33;13.27;;;;;;;;;;5026831;28;20499;-58
2022/03/19 06:39:50;;;;;;;22.08;13.30;;;;;;;;;;5025781;28;20036;-57
2022/03/19 06:42:16;;;;;;;24.85;13.63;;;;;;;;;;5026982;28;20268;-58
2022/03/19 06:44:42;;;;;;;21.58;12.27;;;;;;;;;;5029222;28;20026;-58
2022/03/19 06:47:08;;;;;;;23.10;13.30;;;;;;;;;;5029765;28;20048;-58
2022/03/19 06:49:34;;;;;;;21.60;12.68;;;;;;;;;;5026833;28;20021;-58
2022/03/19 06:52:00;;;;;;;21.13;12.90;;;;;;;;;;5028201;28;20024;-58
2022/03/19 06:54:26;;;;;;;21.55;12.27;;;;;;;;;;5030205;28;20358;-57
2022/03/19 06:56:52;;;;;;;21.48;12.77;;;;;;;;;;5031760;28;20581;-58
2022/03/19 06:59:18;;;;;;;19.70;12.73;;;;;;;;;;5031905;28;20025;-57
2022/03/19 07:01:44;;;;;;;27.02;12.73;;;;;;;;;;5030878;28;20538;-58
2022/03/19 07:04:10;;;;;;;20.52;12.95;;;;;;;;;;5029722;28;20025;-58
2022/03/19 07:06:36;;;;;;;23.60;13.40;;;;;;;;;;5029388;28;20402;-58
2022/03/19 07:09:02;;;;;;;20.00;11.98;;;;;;;;;;5031702;28;20420;-58
2022/03/19 07:11:30;;;;;;;18.45;11.70;;;;;;;;;;5030140;28;20116;-57
2022/03/19 07:13:56;;;;;;;21.10;12.07;;;;;;;;;;5025357;28;20041;-57
2022/03/19 07:16:22;;;;;;;22.83;13.02;;;;;;;;;;5025925;28;20451;-58
2022/03/19 07:18:48;;;;;;;17.58;11.48;;;;;;;;;;5029301;28;20076;-57
2022/03/19 07:21:15;;;;;;;23.95;11.32;;;;;;;;;;5030672;28;20033;-57
2022/03/19 07:23:42;;;;;;;20.60;11.35;;;;;;;;;;5030964;28;20031;-58
2022/03/19 07:26:08;;;;;;;22.08;12.27;;;;;;;;;;5030310;28;20104;-58
2022/03/19 07:28:34;;;;;;;23.25;11.70;;;;;;;;;;5026751;28;20032;-58
2022/03/19 07:31:00;;;;;;;20.77;11.13;;;;;;;;;;5030805;28;20025;-58
2022/03/19 07:33:27;;;;;;;21.77;11.73;;;;;;;;;;5028254;28;20059;-57
2022/03/19 07:35:53;;;;;;;16.77;10.40;;;;;;;;;;5026438;28;20112;-58
2022/03/19 07:38:19;;;;;;;18.95;10.63;;;;;;;;;;5025114;28;20100;-58
2022/03/19 07:43:31;;;;;;;19.70;10.70;;;;;;;;;;5026103;28;20044;-58
2022/03/19 07:45:57;;;;;;;19.13;10.40;;;;;;;;;;5025833;28;20049;-58
2022/03/19 07:48:23;;;;;;;20.85;11.73;;;;;;;;;;5025773;28;20112;-58
2022/03/19 07:50:49;;;;;;;18.88;10.32;;;;;;;;;;5026168;28;20255;-58
2022/03/19 07:53:15;;;;;;;18.17;11.15;;;;;;;;;;5027368;28;20039;-58
2022/03/19 07:55:41;;;;;;;18.85;11.25;;;;;;;;;;5023845;28;20039;-58
2022/03/19 07:58:07;;;;;;;21.27;11.50;;;;;;;;;;5026501;28;20155;-58
2022/03/19 08:00:33;;;;;;;17.42;10.50;;;;;;;;;;5026855;28;20090;-57
2022/03/19 08:02:59;;;;;;;19.67;11.88;;;;;;;;;;5031727;28;20481;-58
2022/03/19 08:05:25;;;;;;;19.48;10.73;;;;;;;;;;5033276;28;20125;-58
2022/03/19 08:07:51;;;;;;;20.55;10.60;;;;;;;;;;5023126;28;20112;-58
2022/03/19 08:10:18;;;;;;;16.23;10.55;;;;;;;;;;5024105;28;20032;-58
2022/03/19 08:12:44;;;;;;;19.48;10.15;;;;;;;;;;5020206;28;20139;-58
2022/03/19 08:15:11;;;;;;;19.92;10.52;;;;;;;;;;5034186;28;20456;-57
2022/03/19 08:17:37;;;;;;;17.15;10.05;;;;;;;;;;5027175;28;20049;-58
2022/03/19 08:20:04;;;;;;;18.50;9.88;;;;;;;;;;5030352;28;20113;-58
2022/03/19 08:22:30;;;;;;;19.67;9.82;;;;;;;;;;5030492;28;20308;-58
2022/03/19 08:24:56;;;;;;;18.35;10.07;;;;;;;;;;5029180;28;20105;-56
2022/03/19 08:27:23;;;;;;;22.42;9.73;;;;;;;;;;5025505;28;20100;-58
2022/03/19 08:29:49;;;;;;;21.92;9.20;;;;;;;;;;5023840;28;20024;-58
2022/03/19 08:32:15;;;;;;;23.55;9.13;;;;;;;;;;5025435;28;20029;-58
2022/03/19 08:34:43;;;;;;;13.30;8.98;;;;;;;;;;5023869;28;20029;-58
2022/03/19 08:37:09;;;;;;;18.50;9.52;;;;;;;;;;5027109;28;20041;-57
2022/03/19 08:42:20;;;;;;;17.30;8.70;;;;;;;;;;5026126;28;20560;-58
2022/03/19 08:44:46;;;;;;;20.02;9.80;;;;;;;;;;5022836;28;20029;-58
2022/03/19 08:47:12;;;;;;;22.63;9.43;;;;;;;;;;5024350;28;20022;-58
2022/03/19 08:49:38;;;;;;;13.85;8.88;;;;;;;;;;5020113;28;20919;-58
2022/03/19 08:52:04;;;;;;;17.35;8.88;;;;;;;;;;5013988;28;20032;-58
2022/03/19 08:54:30;;;;;;;18.45;9.52;;;;;;;;;;5011713;28;20120;-58
2022/03/19 08:56:56;;;;;;;14.00;8.98;;;;;;;;;;5022416;28;20441;-58
2022/03/19 08:59:22;;;;;;;16.08;8.85;;;;;;;;;;5015971;28;20389;-56
2022/03/19 09:01:49;;;;;;;17.88;9.20;;;;;;;;;;5027230;28;20053;-58
2022/03/19 09:04:16;;;;;;;16.58;8.32;;;;;;;;;;5026526;28;20037;-58
2022/03/19 09:06:42;;;;;;;15.00;8.00;;;;;;;;;;5024121;28;20032;-58
2022/03/19 09:09:09;;;;;;;19.02;8.20;;;;;;;;;;5020973;28;20013;-58
2022/03/19 09:11:35;;;;;;;16.65;8.07;;;;;;;;;;5020767;28;20043;-58
2022/03/19 09:14:03;;;;;;;15.35;7.25;;;;;;;;;;5025719;28;20021;-57
2022/03/19 09:16:29;;;;;;;16.23;8.00;;;;;;;;;;5015630;28;20075;-58
2022/03/19 09:18:56;;;;;;;16.73;7.70;;;;;;;;;;5019911;28;20039;-58
2022/03/19 09:21:22;;;;;;;14.63;7.90;;;;;;;;;;5021967;28;20030;-58
2022/03/19 09:23:51;;;;;;;12.98;7.13;;;;;;;;;;5017594;28;20099;-58
2022/03/19 09:26:17;;;;;;;18.25;6.90;;;;;;;;;;5019664;28;20119;-58
2022/03/19 09:28:44;;;;;;;17.45;6.80;;;;;;;;;;5019653;28;20025;-58
2022/03/19 09:31:10;;;;;;;13.25;6.35;;;;;;;;;;5027243;28;20262;-57
2022/03/19 09:33:36;;;;;;;10.20;5.97;;;;;;;;;;5022787;28;20162;-57
2022/03/19 09:36:02;;;;;;;13.70;5.50;;;;;;;;;;5022877;28;20547;-58
2022/03/19 09:38:29;;;;;;;15.63;5.10;;;;;;;;;;5022555;28;20037;-58
2022/03/19 09:40:55;;;;;;;15.48;5.07;;;;;;;;;;5025746;28;20500;-59
2022/03/19 09:43:25;;;;;;;13.05;5.25;;;;;;;;;;5022423;28;20106;-58
2022/03/19 09:45:52;;;;;;;11.05;4.18;;;;;;;;;;5026838;28;20683;-60
2022/03/19 09:48:19;;;;;;;65.03;21.80;;;;;;;;;;5028130;28;20076;-60
2022/03/19 09:50:45;;;;;;;10.20;4.90;;;;;;;;;;5023468;28;20346;-60
2022/03/19 09:53:11;;;;;;;14.00;5.30;;;;;;;;;;5031039;28;20031;-60
2022/03/19 09:55:38;;;;;;;10.10;4.13;;;;;;;;;;5023950;28;20790;-59
2022/03/19 09:58:05;;;;;;;7.65;4.00;;;;;;;;;;5029789;28;20049;-59
2022/03/19 10:00:31;;;;;;;7.75;3.80;;;;;;;;;;5027662;28;20037;-60
2022/03/19 10:02:59;;;;;;;40.33;14.32;;;;;;;;;;5025642;28;20290;-59
2022/03/19 10:10:58;;;;;;;8.88;3.65;;;;;;;;;;5023141;28;20515;-58
2022/03/19 10:13:25;;;;;;;31.27;8.63;;;;;;;;;;5026792;28;20132;-60
2022/03/19 10:15:51;;;;;;;67.30;22.08;;;;;;;;;;5025295;28;20033;-59
2022/03/19 10:18:17;;;;;;;13.75;5.55;;;;;;;;;;5027557;28;20030;-62
2022/03/19 10:20:44;;;;;;;277.17;90.55;;;;;;;;;;5025794;28;20028;-59
2022/03/19 10:23:10;;;;;;;7.63;3.38;;;;;;;;;;5024066;28;20017;-60
2022/03/19 10:25:36;;;;;;;8.48;2.63;;;;;;;;;;5027682;28;20029;-61
2022/03/19 10:28:03;;;;;;;6.82;2.92;;;;;;;;;;5026386;28;20022;-59
2022/03/19 10:30:49;;;;;;;7.55;2.60;;;;;;;;;;5031266;28;20026;-60
2022/03/19 10:33:15;;;;;;;12.60;4.50;;;;;;;;;;5033415;28;20022;-60
2022/03/19 10:35:42;;;;;;;7.25;2.83;;;;;;;;;;5040524;28;20030;-60
2022/03/19 10:38:22;;;;;;;274.00;85.25;;;;;;;;;;5034586;28;20086;-58
2022/03/19 10:40:49;;;;;;;222.05;79.10;;;;;;;;;;5028599;28;20483;-58
2022/03/19 10:43:18;;;;;;;26.17;9.98;;;;;;;;;;5030921;28;20127;-56
2022/03/19 10:45:48;;;;;;;8.13;3.42;;;;;;;;;;5029780;28;20029;-57
2022/03/19 10:48:18;;;;;;;658.63;161.73;;;;;;;;;;5030500;28;20077;-59
2022/03/19 10:50:44;;;;;;;123.25;38.95;;;;;;;;;;5036309;28;20029;-59
2022/03/19 10:53:11;;;;;;;5.40;2.30;;;;;;;;;;5030454;28;20034;-59
2022/03/19 10:55:46;;;;;;;5.28;2.75;;;;;;;;;;5030934;28;20100;-59
2022/03/19 10:58:13;;;;;;;5.97;2.50;;;;;;;;;;5028902;28;20847;-60
2022/03/19 11:00:39;;;;;;;5.20;1.40;;;;;;;;;;5031480;28;20492;-59
2022/03/19 11:03:12;;;;;;;4.63;1.80;;;;;;;;;;5027503;28;20401;-59
2022/03/19 11:05:39;;;;;;;9.45;2.10;;;;;;;;;;5028225;28;20029;-59
2022/03/19 11:08:09;;;;;;;8.55;2.08;;;;;;;;;;5028499;28;20039;-60
2022/03/19 11:10:36;;;;;;;4.90;2.00;;;;;;;;;;5027906;28;20033;-59
2022/03/19 11:13:03;;;;;;;5.05;1.80;;;;;;;;;;5023344;28;20033;-58
2022/03/19 11:15:35;;;;;;;4.90;2.15;;;;;;;;;;5027728;28;20029;-60
2022/03/19 11:18:04;;;;;;;7.25;2.20;;;;;;;;;;5038380;28;20033;-58
2022/03/19 11:20:30;;;;;;;6.78;2.08;;;;;;;;;;5026729;28;20044;-59
2022/03/19 11:22:57;;;;;;;8.85;2.00;;;;;;;;;;5027640;28;20476;-59
2022/03/19 11:25:26;;;;;;;6.05;1.83;;;;;;;;;;5026526;28;20397;-60
2022/03/19 11:27:58;;;;;;;2.83;1.35;;;;;;;;;;5028285;28;20100;-58
2022/03/19 11:30:25;;;;;;;5.25;1.95;;;;;;;;;;5028891;28;20645;-59
2022/03/19 11:33:00;;;;;;;7.32;1.98;;;;;;;;;;5028028;28;20100;-59
2022/03/19 11:35:27;;;;;;;3.35;1.20;;;;;;;;;;5023569;28;20042;-61
2022/03/19 11:38:01;;;;;;;5.35;1.70;;;;;;;;;;5026974;28;20018;-60
2022/03/19 11:40:29;;;;;;;2.72;1.52;;;;;;;;;;5032019;28;20385;-60
2022/03/19 11:42:55;;;;;;;4.40;1.52;;;;;;;;;;5029116;28;20095;-60
2022/03/19 11:45:21;;;;;;;3.38;1.60;;;;;;;;;;5026891;28;20021;-59
2022/03/19 11:47:47;;;;;;;5.40;1.63;;;;;;;;;;5031881;28;20029;-59
2022/03/19 11:50:18;;;;;;;7.63;1.70;;;;;;;;;;5033085;28;20025;-59
2022/03/19 11:52:47;;;;;;;5.20;1.55;;;;;;;;;;5023539;28;20119;-59
2022/03/19 11:55:17;;;;;;;3.72;1.80;;;;;;;;;;5029403;28;21099;-59
2022/03/19 11:57:46;;;;;;;4.25;1.30;;;;;;;;;;5022877;28;20045;-59
2022/03/19 12:00:19;;;;;;;6.95;2.00;;;;;;;;;;5020433;28;20443;-60
2022/03/19 12:03:08;;;;;;;5.32;1.60;;;;;;;;;;5020839;28;20032;-59
2022/03/19 12:05:36;;;;;;;4.60;1.50;;;;;;;;;;5025518;28;20045;-58
2022/03/19 12:08:07;;;;;;;4.47;1.50;;;;;;;;;;5024159;28;20054;-57
2022/03/19 12:10:38;;;;;;;3.50;1.40;;;;;;;;;;5021816;28;20374;-57
2022/03/19 12:13:21;;;;;;;2.50;1.15;;;;;;;;;;5023190;28;20079;-58
2022/03/19 12:15:47;;;;;;;3.28;1.08;;;;;;;;;;5028067;28;20731;-52
2022/03/19 12:18:33;;;;;;;3.08;1.40;;;;;;;;;;5029365;28;20076;-57
2022/03/19 12:21:03;;;;;;;4.10;1.48;;;;;;;;;;5026412;28;20496;-56
2022/03/19 12:23:39;;;;;;;4.28;1.63;;;;;;;;;;5033042;28;20029;-57
2022/03/19 12:26:06;;;;;;;3.38;1.50;;;;;;;;;;5024740;28;20377;-57
2022/03/19 12:28:33;;;;;;;2.95;1.27;;;;;;;;;;5024709;28;20037;-58
2022/03/19 12:31:11;;;;;;;6.95;1.40;;;;;;;;;;5025716;28;20550;-56
2022/03/19 12:33:38;;;;;;;6.25;1.30;;;;;;;;;;5031675;28;20021;-56
2022/03/19 12:36:14;;;;;;;4.85;1.83;;;;;;;;;;5029846;28;20032;-55
2022/03/19 12:38:40;;;;;;;5.78;2.05;;;;;;;;;;5024191;28;20512;-57
2022/03/19 12:41:27;;;;;;;3.83;1.40;;;;;;;;;;5024627;28;20025;-57
2022/03/19 12:43:54;;;;;;;4.30;1.50;;;;;;;;;;5028685;28;20672;-57
2022/03/19 12:46:27;;;;;;;6.28;1.95;;;;;;;;;;5029296;28;20890;-56
2022/03/19 12:48:53;;;;;;;;;;;;;;;;;;5031864;28;20037;-56
2022/03/19 12:51:26;;;;;;;4.25;1.88;;;;;;;;;;5034747;28;19970;-56
2022/03/19 12:53:52;;;;;;;6.72;2.38;;;;;;;;;;5029514;28;20021;-51
2022/03/19 12:56:19;;;;;;;9.02;1.88;;;;;;;;;;5021691;28;20314;-55
2022/03/19 12:58:47;;;;;;;5.22;2.17;;;;;;;;;;5034005;28;20348;-50
2022/03/19 13:01:18;;;;;;;4.95;1.90;;;;;;;;;;5029424;28;20091;-54
2022/03/19 13:03:44;;;;;;;4.80;1.67;;;;;;;;;;5020357;28;20025;-52
2022/03/19 13:06:10;;;;;;;6.32;2.08;;;;;;;;;;5028367;28;20021;-55
2022/03/19 13:08:49;;;;;;;5.68;2.08;;;;;;;;;;5033090;28;20056;-53
2022/03/19 13:11:16;;;;;;;6.35;1.90;;;;;;;;;;5024656;28;20035;-53
2022/03/19 13:13:43;;;;;;;4.95;1.83;;;;;;;;;;5034325;28;20052;-54
2022/03/19 13:16:09;;;;;;;5.78;1.73;;;;;;;;;;5029251;28;20455;-55
2022/03/19 13:18:36;;;;;;;7.75;2.17;;;;;;;;;;5029305;28;20025;-54
2022/03/19 13:21:21;;;;;;;6.22;1.58;;;;;;;;;;5031765;28;20472;-53
2022/03/19 13:23:47;;;;;;;2.95;1.40;;;;;;;;;;5029260;28;20098;-56
2022/03/19 13:26:16;;;;;;;5.53;1.73;;;;;;;;;;5030131;28;20033;-55
2022/03/19 13:29:03;;;;;;;3.28;1.50;;;;;;;;;;5028299;28;20030;-54
2022/03/19 13:31:34;;;;;;;4.18;1.38;;;;;;;;;;5029588;28;20083;-54
2022/03/19 13:34:01;;;;;;;5.25;1.80;;;;;;;;;;5029160;28;20480;-54
2022/03/19 13:36:28;;;;;;;3.03;1.58;;;;;;;;;;5031351;28;20753;-55
2022/03/19 13:38:55;;;;;;;5.03;1.75;;;;;;;;;;5027270;28;20037;-55
2022/03/19 13:41:21;;;;;;;4.78;1.65;;;;;;;;;;5026069;28;20076;-54
2022/03/19 13:43:47;;;;;;;4.95;1.77;;;;;;;;;;5026123;28;20052;-54
2022/03/19 13:46:17;;;;;;;6.75;1.27;;;;;;;;;;5024372;28;20074;-53
2022/03/19 13:48:43;;;;;;;5.63;1.95;;;;;;;;;;5021739;28;20021;-55
2022/03/19 13:51:09;;;;;;;4.43;1.40;;;;;;;;;;5021609;28;20014;-56
2022/03/19 13:53:42;;;;;;;2.63;1.45;;;;;;;;;;5027745;28;20399;-56
2022/03/19 13:56:09;;;;;;;7.95;1.80;;;;;;;;;;5020650;28;20025;-55
2022/03/19 13:58:35;;;;;;;5.05;1.33;;;;;;;;;;5022592;28;20026;-56
2022/03/19 14:01:11;;;;;;;6.32;2.55;;;;;;;;;;5027710;28;20524;-54
2022/03/19 14:03:40;;;;;;;4.60;1.70;;;;;;;;;;5023021;28;20025;-55
2022/03/19 14:06:09;;;;;;;7.22;2.08;;;;;;;;;;5024005;28;21140;-55
2022/03/19 14:08:39;;;;;;;5.18;1.90;;;;;;;;;;5029656;28;20031;-53
2022/03/19 14:11:12;;;;;;;6.22;1.70;;;;;;;;;;5025073;28;20025;-55
2022/03/19 14:13:41;;;;;;;3.75;1.60;;;;;;;;;;5033529;28;20114;-55
2022/03/19 14:16:08;;;;;;;6.53;1.83;;;;;;;;;;5025192;28;20028;-52
2022/03/19 14:18:34;;;;;;;3.22;1.48;;;;;;;;;;5031715;28;20028;-55
2022/03/19 14:21:02;;;;;;;5.72;1.48;;;;;;;;;;5031686;28;20413;-56
2022/03/19 14:23:28;;;;;;;5.43;1.30;;;;;;;;;;5029950;28;20048;-56
2022/03/19 14:25:54;;;;;;;4.00;1.30;;;;;;;;;;5029307;28;20713;-55
2022/03/19 14:28:21;;;;;;;8.15;1.25;;;;;;;;;;5030152;28;20516;-55
2022/03/19 14:30:47;;;;;;;5.38;1.30;;;;;;;;;;5029770;28;20040;-56
2022/03/19 14:33:14;;;;;;;3.08;1.23;;;;;;;;;;5029893;28;20104;-56
2022/03/19 14:35:46;;;;;;;2.13;1.00;;;;;;;;;;5026426;28;20131;-56
2022/03/19 14:38:13;;;;;;;3.65;1.65;;;;;;;;;;5029721;28;20039;-55
2022/03/19 14:40:40;;;;;;;2.45;1.40;;;;;;;;;;5032250;28;20037;-56
2022/03/19 14:43:06;;;;;;;3.35;1.15;;;;;;;;;;5030261;28;20108;-53
2022/03/19 14:45:33;;;;;;;2.28;1.10;;;;;;;;;;5031099;28;20021;-54